PWSweather.com
Personal Weather Stations
Station Observations
KNCCHINA3
Red Tractor Trail, China Grove, NC 28023

Red Tractor TrailChina Grove, NC 28023

Lat: 35.59751, Lon: -80.60201

Elevation: 800

Station Type: Oregon Scientific WMR 968

http://www.joesweathergarage.com

High Low Average
Temperature 68.2°F20.1°C 45.8°F7.7°C 58.3°F14.6°C
Dew Point 66.1°F18.9°C 29.1°F-1.6°C 55.2°F12.9°C
Winds 17.6 mph 28.3 kmh Calm Calm 7.0 mph SE11.3 kmh SE
Wind Gusts 30.8 mph49.6 kmh 2.6 mph4.2 kmh 13.0 mph20.9 kmh
Humidity 98% 52% 90%
Pressure 30.53 in1033.9 mb 30.06 in1017.9 mb -
Precipitation 0.04 in1.0 mm - -
Hour Temp Dew Point Humidity Winds Wind Gusts Pressure Precip Precip Rate Daily Precip Total
12:00 AM 62.9°F17.2°C 62.3°F16.8°C 98% 5.4 mph WSW8.7 kmh WSW 8.6 mph13.8 kmh 30.06 in1017.9 mb 0.00 in0.0 mm 0.00 in0.0 mm 0.12 in3.0 mm
12:05 AM 62.9°F17.2°C 62.3°F16.8°C 98% 4.6 mph S7.4 kmh S 8.6 mph13.8 kmh 30.06 in1017.9 mb 0.00 in0.0 mm 0.00 in0.0 mm 0.12 in3.0 mm
12:12 AM 62.8°F17.1°C 62.2°F16.8°C 98% 4.9 mph SSW7.9 kmh SSW 6.8 mph10.9 kmh 30.06 in1017.9 mb 0.00 in0.0 mm 0.00 in0.0 mm 0.12 in3.0 mm
12:17 AM 62.9°F17.2°C 62.3°F16.8°C 98% 5.2 mph WSW8.4 kmh WSW 7.2 mph11.6 kmh 30.06 in1017.9 mb 0.00 in0.0 mm 0.00 in0.0 mm 0.12 in3.0 mm
12:22 AM 62.9°F17.2°C 62.3°F16.8°C 98% 4.6 mph SW7.4 kmh SW 7.2 mph11.6 kmh 30.06 in1017.9 mb 0.00 in0.0 mm 0.00 in0.0 mm 0.12 in3.0 mm
12:27 AM 62.8°F17.1°C 62.2°F16.8°C 98% 3.4 mph SW5.5 kmh SW 6.2 mph10.0 kmh 30.06 in1017.9 mb 0.00 in0.0 mm 0.00 in0.0 mm 0.12 in3.0 mm
12:32 AM 62.8°F17.1°C 62.2°F16.8°C 98% 5.2 mph WSW8.4 kmh WSW 8.0 mph12.9 kmh 30.06 in1017.9 mb 0.00 in0.0 mm 0.00 in0.0 mm 0.12 in3.0 mm
12:37 AM 62.6°F17.0°C 62.0°F16.7°C 98% 5.4 mph S8.7 kmh S 8.0 mph12.9 kmh 30.06 in1017.9 mb 0.00 in0.0 mm 0.00 in0.0 mm 0.12 in3.0 mm
12:42 AM 62.8°F17.1°C 62.2°F16.8°C 98% 4.7 mph SW7.6 kmh SW 7.2 mph11.6 kmh 30.06 in1017.9 mb 0.00 in0.0 mm 0.00 in0.0 mm 0.12 in3.0 mm
12:47 AM 62.6°F17.0°C 62.0°F16.7°C 98% 3.4 mph SW5.5 kmh SW 7.2 mph11.6 kmh 30.06 in1017.9 mb 0.00 in0.0 mm 0.00 in0.0 mm 0.12 in3.0 mm
12:54 AM 62.4°F16.9°C 61.9°F16.6°C 98% 4.0 mph SSW6.4 kmh SSW 6.2 mph10.0 kmh 30.06 in1017.9 mb 0.00 in0.0 mm 0.00 in0.0 mm 0.12 in3.0 mm
12:59 AM 62.4°F16.9°C 61.9°F16.6°C 98% 4.6 mph SSW7.4 kmh SSW 6.2 mph10.0 kmh 30.06 in1017.9 mb 0.00 in0.0 mm 0.00 in0.0 mm 0.12 in3.0 mm
01:04 AM 62.4°F16.9°C 61.9°F16.6°C 98% 5.8 mph SSW9.3 kmh SSW 8.0 mph12.9 kmh 30.06 in1017.9 mb 0.00 in0.0 mm 0.00 in0.0 mm 0.00 in0.0 mm
01:21 AM 62.4°F16.9°C 61.9°F16.6°C 98% 4.5 mph SW7.2 kmh SW 6.2 mph10.0 kmh 30.09 in1019.0 mb 0.00 in0.0 mm 0.00 in0.0 mm 0.00 in0.0 mm
01:26 AM 62.4°F16.9°C 61.9°F16.6°C 98% 3.8 mph SSW6.1 kmh SSW 6.2 mph10.0 kmh 30.09 in1019.0 mb 0.00 in0.0 mm 0.00 in0.0 mm 0.00 in0.0 mm
01:31 AM 62.4°F16.9°C 61.9°F16.6°C 98% 4.0 mph SW6.4 kmh SW 6.2 mph10.0 kmh 30.09 in1019.0 mb 0.00 in0.0 mm 0.00 in0.0 mm 0.00 in0.0 mm
01:36 AM 62.4°F16.9°C 61.9°F16.6°C 98% 3.3 mph SSW5.3 kmh SSW 5.4 mph8.7 kmh 30.09 in1019.0 mb 0.00 in0.0 mm 0.00 in0.0 mm 0.00 in0.0 mm
01:41 AM 62.4°F16.9°C 61.9°F16.6°C 98% 3.0 mph SSW4.8 kmh SSW 5.4 mph8.7 kmh 30.09 in1019.0 mb 0.00 in0.0 mm 0.00 in0.0 mm 0.00 in0.0 mm
01:47 AM 62.4°F16.9°C 61.9°F16.6°C 98% 2.8 mph SSW4.5 kmh SSW 5.4 mph8.7 kmh 30.09 in1019.0 mb 0.00 in0.0 mm 0.00 in0.0 mm 0.00 in0.0 mm
01:52 AM 62.4°F16.9°C 61.9°F16.6°C 98% 4.3 mph SSW6.9 kmh SSW 6.2 mph10.0 kmh 30.09 in1019.0 mb 0.00 in0.0 mm 0.00 in0.0 mm 0.00 in0.0 mm
01:57 AM 62.2°F16.8°C 61.7°F16.5°C 98% 3.8 mph SSW6.1 kmh SSW 6.2 mph10.0 kmh 30.09 in1019.0 mb 0.00 in0.0 mm 0.00 in0.0 mm 0.00 in0.0 mm
02:02 AM 62.2°F16.8°C 61.7°F16.5°C 98% 3.9 mph SW6.3 kmh SW 5.8 mph9.3 kmh 30.09 in1019.0 mb 0.00 in0.0 mm 0.00 in0.0 mm 0.00 in0.0 mm
02:07 AM 62.0°F16.7°C 61.5°F16.4°C 98% 3.9 mph S6.3 kmh S 5.8 mph9.3 kmh 30.09 in1019.0 mb 0.00 in0.0 mm 0.00 in0.0 mm 0.00 in0.0 mm
02:12 AM 61.9°F16.6°C 61.4°F16.3°C 98% 4.1 mph SSW6.6 kmh SSW 5.4 mph8.7 kmh 30.09 in1019.0 mb 0.00 in0.0 mm 0.00 in0.0 mm 0.00 in0.0 mm
02:18 AM 61.7°F16.5°C 61.2°F16.2°C 98% 4.6 mph S7.4 kmh S 6.2 mph10.0 kmh 30.12 in1020.0 mb 0.00 in0.0 mm 0.00 in0.0 mm 0.00 in0.0 mm
02:23 AM 61.7°F16.5°C 61.2°F16.2°C 98% 3.9 mph SSW6.3 kmh SSW 6.2 mph10.0 kmh 30.12 in1020.0 mb 0.00 in0.0 mm 0.00 in0.0 mm 0.00 in0.0 mm
02:28 AM 61.7°F16.5°C 61.2°F16.2°C 98% 6.3 mph S10.1 kmh S 8.0 mph12.9 kmh 30.09 in1019.0 mb 0.00 in0.0 mm 0.00 in0.0 mm 0.00 in0.0 mm
02:33 AM 61.7°F16.5°C 61.2°F16.2°C 98% 7.0 mph SSW11.3 kmh SSW 11.6 mph18.7 kmh 30.09 in1019.0 mb 0.00 in0.0 mm 0.00 in0.0 mm 0.00 in0.0 mm
02:39 AM 61.5°F16.4°C 61.0°F16.1°C 98% 4.0 mph SSW6.4 kmh SSW 11.6 mph18.7 kmh 30.09 in1019.0 mb 0.00 in0.0 mm 0.00 in0.0 mm 0.00 in0.0 mm
02:44 AM 61.5°F16.4°C 61.0°F16.1°C 98% 4.6 mph SW7.4 kmh SW 9.8 mph15.8 kmh 30.09 in1019.0 mb 0.00 in0.0 mm 0.00 in0.0 mm 0.00 in0.0 mm
02:49 AM 61.5°F16.4°C 61.0°F16.1°C 98% 3.3 mph S5.3 kmh S 6.8 mph10.9 kmh 30.09 in1019.0 mb 0.00 in0.0 mm 0.00 in0.0 mm 0.00 in0.0 mm
02:54 AM 61.5°F16.4°C 61.0°F16.1°C 98% 2.6 mph S4.2 kmh S 5.0 mph8.0 kmh 30.09 in1019.0 mb 0.00 in0.0 mm 0.00 in0.0 mm 0.00 in0.0 mm
02:59 AM 61.5°F16.4°C 61.0°F16.1°C 98% 3.8 mph SW6.1 kmh SW 5.8 mph9.3 kmh 30.09 in1019.0 mb 0.00 in0.0 mm 0.00 in0.0 mm 0.00 in0.0 mm
03:04 AM 61.5°F16.4°C 61.0°F16.1°C 98% 3.9 mph SSW6.3 kmh SSW 5.8 mph9.3 kmh 30.09 in1019.0 mb 0.00 in0.0 mm 0.00 in0.0 mm 0.00 in0.0 mm
03:09 AM 61.5°F16.4°C 61.0°F16.1°C 98% 4.8 mph SSW7.7 kmh SSW 7.2 mph11.6 kmh 30.09 in1019.0 mb 0.00 in0.0 mm 0.00 in0.0 mm 0.00 in0.0 mm
03:14 AM 61.5°F16.4°C 61.0°F16.1°C 98% 3.4 mph SW5.5 kmh SW 7.2 mph11.6 kmh 30.09 in1019.0 mb 0.00 in0.0 mm 0.00 in0.0 mm 0.00 in0.0 mm
03:20 AM 61.3°F16.3°C 60.8°F16.0°C 98% 2.6 mph S4.2 kmh S 5.4 mph8.7 kmh 30.09 in1019.0 mb 0.00 in0.0 mm 0.00 in0.0 mm 0.00 in0.0 mm
03:25 AM 61.3°F16.3°C 60.8°F16.0°C 98% 2.9 mph SW4.7 kmh SW 5.4 mph8.7 kmh 30.09 in1019.0 mb 0.00 in0.0 mm 0.00 in0.0 mm 0.00 in0.0 mm
03:32 AM 61.3°F16.3°C 60.8°F16.0°C 98% 5.4 mph S8.7 kmh S 7.6 mph12.2 kmh 30.09 in1019.0 mb 0.00 in0.0 mm 0.00 in0.0 mm 0.00 in0.0 mm
03:37 AM 61.3°F16.3°C 60.8°F16.0°C 98% 4.5 mph SSW7.2 kmh SSW 7.6 mph12.2 kmh 30.09 in1019.0 mb 0.00 in0.0 mm 0.00 in0.0 mm 0.00 in0.0 mm
03:43 AM 61.1°F16.2°C 60.6°F15.9°C 98% 4.8 mph SSW7.7 kmh SSW 6.8 mph10.9 kmh 30.09 in1019.0 mb 0.00 in0.0 mm 0.00 in0.0 mm 0.00 in0.0 mm
03:48 AM 61.1°F16.2°C 60.6°F15.9°C 98% 4.9 mph SSW7.9 kmh SSW 6.8 mph10.9 kmh 30.09 in1019.0 mb 0.04 in1.0 mm 0.48 in12.2 mm 0.04 in1.0 mm
03:53 AM 61.1°F16.2°C 60.6°F15.9°C 98% 3.9 mph SSW6.3 kmh SSW 6.8 mph10.9 kmh 30.09 in1019.0 mb 0.04 in1.0 mm 0.00 in0.0 mm 0.04 in1.0 mm
03:58 AM 61.1°F16.2°C 60.6°F15.9°C 98% 4.2 mph SSW6.8 kmh SSW 5.8 mph9.3 kmh 30.09 in1019.0 mb 0.00 in0.0 mm 0.00 in0.0 mm 0.04 in1.0 mm
04:03 AM 61.1°F16.2°C 60.6°F15.9°C 98% 4.7 mph SSW7.6 kmh SSW 5.8 mph9.3 kmh 30.09 in1019.0 mb 0.00 in0.0 mm 0.00 in0.0 mm 0.04 in1.0 mm
04:08 AM 61.1°F16.2°C 60.6°F15.9°C 98% 4.8 mph S7.7 kmh S 8.6 mph13.8 kmh 30.09 in1019.0 mb 0.00 in0.0 mm 0.00 in0.0 mm 0.04 in1.0 mm
04:13 AM 61.1°F16.2°C 60.6°F15.9°C 98% 4.1 mph S6.6 kmh S 8.6 mph13.8 kmh 30.09 in1019.0 mb 0.00 in0.0 mm 0.00 in0.0 mm 0.04 in1.0 mm
04:18 AM 61.1°F16.2°C 60.6°F15.9°C 98% 5.4 mph SW8.7 kmh SW 7.6 mph12.2 kmh 30.09 in1019.0 mb 0.00 in0.0 mm 0.00 in0.0 mm 0.04 in1.0 mm
04:23 AM 61.0°F16.1°C 60.5°F15.8°C 98% 4.6 mph SSW7.4 kmh SSW 8.0 mph12.9 kmh 30.09 in1019.0 mb 0.00 in0.0 mm 0.00 in0.0 mm 0.04 in1.0 mm
04:28 AM 61.0°F16.1°C 60.5°F15.8°C 98% 4.6 mph SSW7.4 kmh SSW 8.0 mph12.9 kmh 30.09 in1019.0 mb 0.00 in0.0 mm 0.00 in0.0 mm 0.04 in1.0 mm
04:33 AM 61.0°F16.1°C 60.5°F15.8°C 98% 4.6 mph SSW7.4 kmh SSW 7.2 mph11.6 kmh 30.09 in1019.0 mb 0.00 in0.0 mm 0.00 in0.0 mm 0.04 in1.0 mm
04:38 AM 61.0°F16.1°C 60.5°F15.8°C 98% 5.3 mph SW8.5 kmh SW 7.2 mph11.6 kmh 30.09 in1019.0 mb 0.00 in0.0 mm 0.00 in0.0 mm 0.04 in1.0 mm
04:44 AM 61.0°F16.1°C 60.5°F15.8°C 98% 3.9 mph SW6.3 kmh SW 7.2 mph11.6 kmh 30.06 in1017.9 mb 0.00 in0.0 mm 0.00 in0.0 mm 0.04 in1.0 mm
04:49 AM 61.0°F16.1°C 60.5°F15.8°C 98% 4.2 mph SW6.8 kmh SW 8.6 mph13.8 kmh 30.06 in1017.9 mb 0.00 in0.0 mm 0.00 in0.0 mm 0.04 in1.0 mm
04:54 AM 61.1°F16.2°C 60.6°F15.9°C 98% 5.5 mph SW8.9 kmh SW 8.6 mph13.8 kmh 30.06 in1017.9 mb 0.00 in0.0 mm 0.00 in0.0 mm 0.04 in1.0 mm
04:59 AM 61.1°F16.2°C 60.6°F15.9°C 98% 3.6 mph SW5.8 kmh SW 8.6 mph13.8 kmh 30.09 in1019.0 mb 0.00 in0.0 mm 0.00 in0.0 mm 0.04 in1.0 mm
05:04 AM 61.1°F16.2°C 60.6°F15.9°C 98% 3.9 mph SW6.3 kmh SW 7.6 mph12.2 kmh 30.09 in1019.0 mb 0.00 in0.0 mm 0.00 in0.0 mm 0.04 in1.0 mm
05:09 AM 61.0°F16.1°C 60.5°F15.8°C 98% 5.2 mph WSW8.4 kmh WSW 8.6 mph13.8 kmh 30.09 in1019.0 mb 0.00 in0.0 mm 0.00 in0.0 mm 0.04 in1.0 mm
05:14 AM 61.0°F16.1°C 60.5°F15.8°C 98% 4.4 mph SW7.1 kmh SW 8.6 mph13.8 kmh 30.06 in1017.9 mb 0.00 in0.0 mm 0.00 in0.0 mm 0.04 in1.0 mm
05:19 AM 60.8°F16.0°C 60.3°F15.7°C 98% 5.3 mph SW8.5 kmh SW 6.2 mph10.0 kmh 30.06 in1017.9 mb 0.00 in0.0 mm 0.00 in0.0 mm 0.04 in1.0 mm
05:24 AM 60.8°F16.0°C 60.3°F15.7°C 98% 4.3 mph SSW6.9 kmh SSW 6.2 mph10.0 kmh 30.06 in1017.9 mb 0.00 in0.0 mm 0.00 in0.0 mm 0.04 in1.0 mm
05:29 AM 60.8°F16.0°C 60.3°F15.7°C 98% 4.7 mph SW7.6 kmh SW 7.2 mph11.6 kmh 30.09 in1019.0 mb 0.00 in0.0 mm 0.00 in0.0 mm 0.04 in1.0 mm
05:35 AM 60.8°F16.0°C 60.3°F15.7°C 98% 4.9 mph SW7.9 kmh SW 7.2 mph11.6 kmh 30.09 in1019.0 mb 0.00 in0.0 mm 0.00 in0.0 mm 0.04 in1.0 mm
05:40 AM 60.8°F16.0°C 60.3°F15.7°C 98% 5.9 mph SW9.5 kmh SW 8.6 mph13.8 kmh 30.09 in1019.0 mb 0.00 in0.0 mm 0.00 in0.0 mm 0.04 in1.0 mm
05:46 AM 61.0°F16.1°C 60.5°F15.8°C 98% 5.9 mph WSW9.5 kmh WSW 8.6 mph13.8 kmh 30.09 in1019.0 mb 0.00 in0.0 mm 0.00 in0.0 mm 0.04 in1.0 mm
05:51 AM 61.0°F16.1°C 60.5°F15.8°C 98% 4.3 mph SW6.9 kmh SW 8.6 mph13.8 kmh 30.09 in1019.0 mb 0.00 in0.0 mm 0.00 in0.0 mm 0.04 in1.0 mm
05:57 AM 61.0°F16.1°C 60.5°F15.8°C 98% 6.3 mph SW10.1 kmh SW 11.6 mph18.7 kmh 30.09 in1019.0 mb 0.00 in0.0 mm 0.00 in0.0 mm 0.04 in1.0 mm
06:02 AM 60.8°F16.0°C 60.3°F15.7°C 98% 4.8 mph WSW7.7 kmh WSW 11.6 mph18.7 kmh 30.09 in1019.0 mb 0.00 in0.0 mm 0.00 in0.0 mm 0.04 in1.0 mm
06:07 AM 60.8°F16.0°C 60.3°F15.7°C 98% 4.8 mph SSW7.7 kmh SSW 8.0 mph12.9 kmh 30.09 in1019.0 mb 0.00 in0.0 mm 0.00 in0.0 mm 0.04 in1.0 mm
06:12 AM 60.8°F16.0°C 60.3°F15.7°C 98% 5.1 mph SW8.2 kmh SW 9.8 mph15.8 kmh 30.09 in1019.0 mb 0.00 in0.0 mm 0.00 in0.0 mm 0.04 in1.0 mm
06:18 AM 60.8°F16.0°C 60.3°F15.7°C 98% 4.4 mph SW7.1 kmh SW 9.8 mph15.8 kmh 30.09 in1019.0 mb 0.00 in0.0 mm 0.00 in0.0 mm 0.04 in1.0 mm
06:23 AM 60.8°F16.0°C 60.3°F15.7°C 98% 5.8 mph SW9.3 kmh SW 8.6 mph13.8 kmh 30.09 in1019.0 mb 0.00 in0.0 mm 0.00 in0.0 mm 0.04 in1.0 mm
06:29 AM 60.8°F16.0°C 60.3°F15.7°C 98% 4.1 mph SW6.6 kmh SW 8.6 mph13.8 kmh 30.09 in1019.0 mb 0.00 in0.0 mm 0.00 in0.0 mm 0.04 in1.0 mm
06:35 AM 60.8°F16.0°C 60.3°F15.7°C 98% 5.4 mph SSW8.7 kmh SSW 8.0 mph12.9 kmh 30.09 in1019.0 mb 0.00 in0.0 mm 0.00 in0.0 mm 0.04 in1.0 mm
06:40 AM 60.8°F16.0°C 60.3°F15.7°C 98% 4.4 mph SSW7.1 kmh SSW 8.6 mph13.8 kmh 30.09 in1019.0 mb 0.00 in0.0 mm 0.00 in0.0 mm 0.04 in1.0 mm
06:45 AM 60.8°F16.0°C 60.3°F15.7°C 98% 4.6 mph SW7.4 kmh SW 8.6 mph13.8 kmh 30.09 in1019.0 mb 0.00 in0.0 mm 0.00 in0.0 mm 0.04 in1.0 mm
06:50 AM 60.6°F15.9°C 60.1°F15.6°C 98% 4.3 mph SSW6.9 kmh SSW 9.0 mph14.5 kmh 30.09 in1019.0 mb 0.00 in0.0 mm 0.00 in0.0 mm 0.04 in1.0 mm
06:55 AM 60.6°F15.9°C 60.1°F15.6°C 98% 4.6 mph SW7.4 kmh SW 9.0 mph14.5 kmh 30.09 in1019.0 mb 0.00 in0.0 mm 0.00 in0.0 mm 0.04 in1.0 mm
07:00 AM 60.4°F15.8°C 59.9°F15.5°C 98% 3.5 mph SSW5.6 kmh SSW 7.2 mph11.6 kmh 30.09 in1019.0 mb 0.00 in0.0 mm 0.00 in0.0 mm 0.04 in1.0 mm
07:05 AM 60.4°F15.8°C 59.9°F15.5°C 98% 5.5 mph WSW8.9 kmh WSW 8.0 mph12.9 kmh 30.09 in1019.0 mb 0.00 in0.0 mm 0.00 in0.0 mm 0.04 in1.0 mm
07:10 AM 60.4°F15.8°C 59.9°F15.5°C 98% 4.9 mph WSW7.9 kmh WSW 8.0 mph12.9 kmh 30.09 in1019.0 mb 0.00 in0.0 mm 0.00 in0.0 mm 0.04 in1.0 mm
07:16 AM 60.4°F15.8°C 59.9°F15.5°C 98% 4.9 mph SW7.9 kmh SW 7.2 mph11.6 kmh 30.12 in1020.0 mb 0.00 in0.0 mm 0.00 in0.0 mm 0.04 in1.0 mm
07:21 AM 60.6°F15.9°C 60.1°F15.6°C 98% 6.0 mph SSW9.7 kmh SSW 10.8 mph17.4 kmh 30.12 in1020.0 mb 0.00 in0.0 mm 0.00 in0.0 mm 0.04 in1.0 mm
07:26 AM 60.6°F15.9°C 60.1°F15.6°C 98% 6.3 mph WSW10.1 kmh WSW 10.8 mph17.4 kmh 30.12 in1020.0 mb 0.00 in0.0 mm 0.00 in0.0 mm 0.04 in1.0 mm
07:31 AM 60.6°F15.9°C 60.1°F15.6°C 98% 5.0 mph SW8.0 kmh SW 9.8 mph15.8 kmh 30.15 in1021.0 mb 0.00 in0.0 mm 0.00 in0.0 mm 0.04 in1.0 mm
07:36 AM 60.6°F15.9°C 60.1°F15.6°C 98% 6.0 mph SW9.7 kmh SW 7.2 mph11.6 kmh 30.15 in1021.0 mb 0.00 in0.0 mm 0.00 in0.0 mm 0.04 in1.0 mm
07:43 AM 60.8°F16.0°C 60.3°F15.7°C 98% 5.2 mph SW8.4 kmh SW 7.2 mph11.6 kmh 30.15 in1021.0 mb 0.00 in0.0 mm 0.00 in0.0 mm 0.04 in1.0 mm
07:48 AM 60.6°F15.9°C 60.1°F15.6°C 98% 4.3 mph WSW6.9 kmh WSW 8.6 mph13.8 kmh 30.15 in1021.0 mb 0.00 in0.0 mm 0.00 in0.0 mm 0.04 in1.0 mm
07:53 AM 60.8°F16.0°C 60.3°F15.7°C 98% 5.4 mph SW8.7 kmh SW 8.6 mph13.8 kmh 30.15 in1021.0 mb 0.00 in0.0 mm 0.00 in0.0 mm 0.04 in1.0 mm
07:58 AM 60.8°F16.0°C 60.3°F15.7°C 98% 4.6 mph SSW7.4 kmh SSW 7.2 mph11.6 kmh 30.15 in1021.0 mb 0.00 in0.0 mm 0.00 in0.0 mm 0.04 in1.0 mm
08:03 AM 60.6°F15.9°C 60.1°F15.6°C 98% 4.5 mph WSW7.2 kmh WSW 7.2 mph11.6 kmh 30.15 in1021.0 mb 0.00 in0.0 mm 0.00 in0.0 mm 0.04 in1.0 mm
08:08 AM 60.6°F15.9°C 60.1°F15.6°C 98% 5.6 mph WSW9.0 kmh WSW 7.2 mph11.6 kmh 30.15 in1021.0 mb 0.00 in0.0 mm 0.00 in0.0 mm 0.04 in1.0 mm
08:13 AM 60.8°F16.0°C 60.3°F15.7°C 98% 4.5 mph SW7.2 kmh SW 7.2 mph11.6 kmh 30.15 in1021.0 mb 0.00 in0.0 mm 0.00 in0.0 mm 0.04 in1.0 mm
08:18 AM 60.8°F16.0°C 60.3°F15.7°C 98% 4.9 mph SW7.9 kmh SW 7.2 mph11.6 kmh 30.15 in1021.0 mb 0.00 in0.0 mm 0.00 in0.0 mm 0.04 in1.0 mm
08:23 AM 60.8°F16.0°C 60.3°F15.7°C 98% 3.5 mph SSW5.6 kmh SSW 7.2 mph11.6 kmh 30.15 in1021.0 mb 0.00 in0.0 mm 0.00 in0.0 mm 0.04 in1.0 mm
08:28 AM 60.8°F16.0°C 60.3°F15.7°C 98% 3.8 mph S6.1 kmh S 7.2 mph11.6 kmh 30.15 in1021.0 mb 0.00 in0.0 mm 0.00 in0.0 mm 0.04 in1.0 mm
08:34 AM 60.8°F16.0°C 60.3°F15.7°C 98% 3.0 mph SSW4.8 kmh SSW 6.2 mph10.0 kmh 30.15 in1021.0 mb 0.00 in0.0 mm 0.00 in0.0 mm 0.04 in1.0 mm
08:39 AM 60.8°F16.0°C 60.3°F15.7°C 98% 3.2 mph SSW5.1 kmh SSW 5.4 mph8.7 kmh 30.15 in1021.0 mb 0.00 in0.0 mm 0.00 in0.0 mm 0.04 in1.0 mm
08:44 AM 60.8°F16.0°C 60.3°F15.7°C 98% 2.7 mph SSE4.3 kmh SSE 5.4 mph8.7 kmh 30.15 in1021.0 mb 0.00 in0.0 mm 0.00 in0.0 mm 0.04 in1.0 mm
08:49 AM 60.8°F16.0°C 60.3°F15.7°C 98% 5.3 mph SW8.5 kmh SW 7.2 mph11.6 kmh 30.15 in1021.0 mb 0.00 in0.0 mm 0.00 in0.0 mm 0.04 in1.0 mm
08:55 AM 60.8°F16.0°C 60.3°F15.7°C 98% 3.7 mph SSE6.0 kmh SSE 7.2 mph11.6 kmh 30.15 in1021.0 mb 0.00 in0.0 mm 0.00 in0.0 mm 0.04 in1.0 mm
09:00 AM 60.8°F16.0°C 60.3°F15.7°C 98% 4.0 mph SSW6.4 kmh SSW 5.4 mph8.7 kmh 30.15 in1021.0 mb 0.00 in0.0 mm 0.00 in0.0 mm 0.04 in1.0 mm
09:05 AM 60.8°F16.0°C 60.3°F15.7°C 98% 4.0 mph WSW6.4 kmh WSW 5.8 mph9.3 kmh 30.15 in1021.0 mb 0.00 in0.0 mm 0.00 in0.0 mm 0.04 in1.0 mm
09:10 AM 60.8°F16.0°C 60.3°F15.7°C 98% 3.4 mph SSW5.5 kmh SSW 5.8 mph9.3 kmh 30.15 in1021.0 mb 0.00 in0.0 mm 0.00 in0.0 mm 0.04 in1.0 mm
09:15 AM 60.8°F16.0°C 60.3°F15.7°C 98% 3.3 mph SW5.3 kmh SW 5.4 mph8.7 kmh 30.15 in1021.0 mb 0.00 in0.0 mm 0.00 in0.0 mm 0.04 in1.0 mm
09:20 AM 60.8°F16.0°C 60.3°F15.7°C 98% 3.4 mph S5.5 kmh S 5.0 mph8.0 kmh 30.15 in1021.0 mb 0.00 in0.0 mm 0.00 in0.0 mm 0.04 in1.0 mm
09:25 AM 60.8°F16.0°C 60.3°F15.7°C 98% 5.1 mph SSW8.2 kmh SSW 5.8 mph9.3 kmh 30.15 in1021.0 mb 0.00 in0.0 mm 0.00 in0.0 mm 0.04 in1.0 mm
09:30 AM 61.0°F16.1°C 60.5°F15.8°C 98% 3.7 mph SSW6.0 kmh SSW 6.2 mph10.0 kmh 30.15 in1021.0 mb 0.00 in0.0 mm 0.00 in0.0 mm 0.04 in1.0 mm
10:01 AM 61.7°F16.5°C 61.2°F16.2°C 98% 6.1 mph S9.8 kmh S 8.0 mph12.9 kmh 30.18 in1022.0 mb 0.00 in0.0 mm 0.00 in0.0 mm 0.04 in1.0 mm
10:07 AM 62.0°F16.7°C 61.5°F16.4°C 98% 5.0 mph SW8.0 kmh SW 8.0 mph12.9 kmh 30.18 in1022.0 mb 0.00 in0.0 mm 0.00 in0.0 mm 0.04 in1.0 mm
10:12 AM 62.2°F16.8°C 61.7°F16.5°C 98% 4.4 mph WSW7.1 kmh WSW 7.6 mph12.2 kmh 30.18 in1022.0 mb 0.00 in0.0 mm 0.00 in0.0 mm 0.04 in1.0 mm
10:17 AM 62.6°F17.0°C 62.0°F16.7°C 98% 2.7 mph S4.3 kmh S 7.6 mph12.2 kmh 30.21 in1023.0 mb 0.00 in0.0 mm 0.00 in0.0 mm 0.04 in1.0 mm
10:22 AM 62.8°F17.1°C 62.2°F16.8°C 98% 4.6 mph W7.4 kmh W 6.8 mph10.9 kmh 30.21 in1023.0 mb 0.00 in0.0 mm 0.00 in0.0 mm 0.04 in1.0 mm
10:27 AM 63.1°F17.3°C 62.5°F16.9°C 98% 3.3 mph WSW5.3 kmh WSW 6.8 mph10.9 kmh 30.21 in1023.0 mb 0.00 in0.0 mm 0.00 in0.0 mm 0.04 in1.0 mm
10:32 AM 63.1°F17.3°C 62.5°F16.9°C 98% 4.4 mph W7.1 kmh W 5.8 mph9.3 kmh 30.21 in1023.0 mb 0.00 in0.0 mm 0.00 in0.0 mm 0.04 in1.0 mm
10:38 AM 63.3°F17.4°C 62.7°F17.1°C 98% 5.3 mph WSW8.5 kmh WSW 6.8 mph10.9 kmh 30.21 in1023.0 mb 0.00 in0.0 mm 0.00 in0.0 mm 0.04 in1.0 mm
10:43 AM 63.1°F17.3°C 62.2°F16.8°C 97% 5.9 mph NW9.5 kmh NW 7.6 mph12.2 kmh 30.21 in1023.0 mb 0.00 in0.0 mm 0.00 in0.0 mm 0.04 in1.0 mm
10:48 AM 62.9°F17.2°C 62.0°F16.7°C 97% 7.0 mph W11.3 kmh W 8.0 mph12.9 kmh 30.21 in1023.0 mb 0.00 in0.0 mm 0.00 in0.0 mm 0.04 in1.0 mm
10:53 AM 62.9°F17.2°C 62.0°F16.7°C 97% 3.3 mph W5.3 kmh W 8.0 mph12.9 kmh 30.21 in1023.0 mb 0.00 in0.0 mm 0.00 in0.0 mm 0.04 in1.0 mm
10:58 AM 62.9°F17.2°C 62.0°F16.7°C 97% 4.0 mph WSW6.4 kmh WSW 7.2 mph11.6 kmh 30.21 in1023.0 mb 0.00 in0.0 mm 0.00 in0.0 mm 0.04 in1.0 mm
11:03 AM 62.9°F17.2°C 62.0°F16.7°C 97% 5.4 mph SW8.7 kmh SW 6.8 mph10.9 kmh 30.21 in1023.0 mb 0.00 in0.0 mm 0.00 in0.0 mm 0.04 in1.0 mm
11:08 AM 62.8°F17.1°C 62.0°F16.7°C 97% 4.1 mph WSW6.6 kmh WSW 6.2 mph10.0 kmh 30.21 in1023.0 mb 0.00 in0.0 mm 0.00 in0.0 mm 0.04 in1.0 mm
11:13 AM 62.8°F17.1°C 62.0°F16.7°C 97% 5.6 mph W9.0 kmh W 7.2 mph11.6 kmh 30.21 in1023.0 mb 0.00 in0.0 mm 0.00 in0.0 mm 0.04 in1.0 mm
11:20 AM 62.9°F17.2°C 62.0°F16.7°C 97% 5.0 mph W8.0 kmh W 7.2 mph11.6 kmh 30.21 in1023.0 mb 0.00 in0.0 mm 0.00 in0.0 mm 0.04 in1.0 mm
11:25 AM 62.9°F17.2°C 62.0°F16.7°C 97% 5.9 mph WSW9.5 kmh WSW 6.8 mph10.9 kmh 30.21 in1023.0 mb 0.00 in0.0 mm 0.00 in0.0 mm 0.04 in1.0 mm
11:29 AM 62.9°F17.2°C 62.0°F16.7°C 97% 5.2 mph W8.4 kmh W 7.6 mph12.2 kmh 30.24 in1024.0 mb 0.00 in0.0 mm 0.00 in0.0 mm 0.04 in1.0 mm
11:35 AM 62.9°F17.2°C 62.0°F16.7°C 97% 5.3 mph W8.5 kmh W 7.6 mph12.2 kmh 30.24 in1024.0 mb 0.00 in0.0 mm 0.00 in0.0 mm 0.04 in1.0 mm
11:40 AM 62.9°F17.2°C 62.0°F16.7°C 97% 5.2 mph W8.4 kmh W 7.6 mph12.2 kmh 30.24 in1024.0 mb 0.00 in0.0 mm 0.00 in0.0 mm 0.04 in1.0 mm
11:45 AM 63.1°F17.3°C 62.2°F16.8°C 97% 2.8 mph SW4.5 kmh SW 6.8 mph10.9 kmh 30.24 in1024.0 mb 0.00 in0.0 mm 0.00 in0.0 mm 0.04 in1.0 mm
11:50 AM 62.9°F17.2°C 62.0°F16.7°C 97% 5.8 mph W9.3 kmh W 7.6 mph12.2 kmh 30.24 in1024.0 mb 0.00 in0.0 mm 0.00 in0.0 mm 0.04 in1.0 mm
11:55 AM 62.9°F17.2°C 62.0°F16.7°C 97% 4.9 mph W7.9 kmh W 7.6 mph12.2 kmh 30.24 in1024.0 mb 0.00 in0.0 mm 0.00 in0.0 mm 0.04 in1.0 mm
12:00 PM 62.9°F17.2°C 62.0°F16.7°C 97% 3.4 mph WSW5.5 kmh WSW 7.6 mph12.2 kmh 30.24 in1024.0 mb 0.00 in0.0 mm 0.00 in0.0 mm 0.04 in1.0 mm
12:05 PM 62.9°F17.2°C 62.3°F16.8°C 98% 4.5 mph W7.2 kmh W 5.8 mph9.3 kmh 30.24 in1024.0 mb 0.00 in0.0 mm 0.00 in0.0 mm 0.04 in1.0 mm
12:11 PM 63.3°F17.4°C 62.7°F17.1°C 98% 2.8 mph WSW4.5 kmh WSW 5.8 mph9.3 kmh 30.24 in1024.0 mb 0.00 in0.0 mm 0.00 in0.0 mm 0.04 in1.0 mm
12:16 PM 63.3°F17.4°C 62.7°F17.1°C 98% 4.6 mph W7.4 kmh W 6.2 mph10.0 kmh 30.24 in1024.0 mb 0.00 in0.0 mm 0.00 in0.0 mm 0.04 in1.0 mm
12:22 PM 63.5°F17.5°C 62.9°F17.2°C 98% 2.1 mph WNW3.4 kmh WNW 6.2 mph10.0 kmh 30.24 in1024.0 mb 0.00 in0.0 mm 0.00 in0.0 mm 0.04 in1.0 mm
12:27 PM 63.3°F17.4°C 62.7°F17.1°C 98% 3.6 mph WNW5.8 kmh WNW 5.0 mph8.0 kmh 30.24 in1024.0 mb 0.00 in0.0 mm 0.00 in0.0 mm 0.04 in1.0 mm
12:32 PM 63.3°F17.4°C 62.7°F17.1°C 98% 2.3 mph NW3.7 kmh NW 5.0 mph8.0 kmh 30.24 in1024.0 mb 0.00 in0.0 mm 0.00 in0.0 mm 0.04 in1.0 mm
12:37 PM 63.3°F17.4°C 62.7°F17.1°C 98% 2.5 mph W4.0 kmh W 4.4 mph7.1 kmh 30.24 in1024.0 mb 0.00 in0.0 mm 0.00 in0.0 mm 0.04 in1.0 mm
12:42 PM 63.1°F17.3°C 62.5°F16.9°C 98% 2.8 mph W4.5 kmh W 5.0 mph8.0 kmh 30.27 in1025.1 mb 0.00 in0.0 mm 0.00 in0.0 mm 0.04 in1.0 mm
12:47 PM 63.1°F17.3°C 62.5°F16.9°C 98% Calm Calm 5.0 mph8.0 kmh 30.27 in1025.1 mb 0.00 in0.0 mm 0.00 in0.0 mm 0.04 in1.0 mm
12:53 PM 63.1°F17.3°C 62.5°F16.9°C 98% Calm Calm 2.6 mph4.2 kmh 30.27 in1025.1 mb 0.00 in0.0 mm 0.00 in0.0 mm 0.04 in1.0 mm
12:58 PM 63.5°F17.5°C 62.9°F17.2°C 98% 1.9 mph N3.1 kmh N 4.0 mph6.4 kmh 30.27 in1025.1 mb 0.00 in0.0 mm 0.00 in0.0 mm 0.04 in1.0 mm
01:03 PM 63.3°F17.4°C 62.7°F17.1°C 98% 3.6 mph WNW5.8 kmh WNW 5.4 mph8.7 kmh 30.27 in1025.1 mb 0.00 in0.0 mm 0.00 in0.0 mm 0.04 in1.0 mm
01:08 PM 63.5°F17.5°C 62.9°F17.2°C 98% 2.1 mph NNE3.4 kmh NNE 5.4 mph8.7 kmh 30.27 in1025.1 mb 0.00 in0.0 mm 0.00 in0.0 mm 0.04 in1.0 mm
01:13 PM 63.3°F17.4°C 62.7°F17.1°C 98% 3.3 mph 5.3 kmh 5.0 mph8.0 kmh 30.24 in1024.0 mb 0.00 in0.0 mm 0.00 in0.0 mm 0.04 in1.0 mm
01:18 PM 63.1°F17.3°C 62.5°F16.9°C 98% 4.5 mph NNE7.2 kmh NNE 5.4 mph8.7 kmh 30.24 in1024.0 mb 0.00 in0.0 mm 0.00 in0.0 mm 0.04 in1.0 mm
01:24 PM 63.7°F17.6°C 63.1°F17.3°C 98% 2.7 mph ENE4.3 kmh ENE 5.4 mph8.7 kmh 30.24 in1024.0 mb 0.00 in0.0 mm 0.00 in0.0 mm 0.04 in1.0 mm
01:29 PM 64.9°F18.3°C 64.3°F17.9°C 98% 2.3 mph ENE3.7 kmh ENE 4.0 mph6.4 kmh 30.24 in1024.0 mb 0.00 in0.0 mm 0.00 in0.0 mm 0.04 in1.0 mm
01:35 PM 66.5°F19.2°C 65.9°F18.8°C 98% 3.6 mph NE5.8 kmh NE 5.8 mph9.3 kmh 30.24 in1024.0 mb 0.00 in0.0 mm 0.00 in0.0 mm 0.04 in1.0 mm
01:40 PM 67.3°F19.6°C 66.1°F18.9°C 96% 4.0 mph N6.4 kmh N 6.8 mph10.9 kmh 30.24 in1024.0 mb 0.00 in0.0 mm 0.00 in0.0 mm 0.04 in1.0 mm
01:45 PM 68.2°F20.1°C 65.8°F18.8°C 92% 6.8 mph NE10.9 kmh NE 8.6 mph13.8 kmh 30.24 in1024.0 mb 0.00 in0.0 mm 0.00 in0.0 mm 0.04 in1.0 mm
01:50 PM 66.4°F19.1°C 61.2°F16.2°C 83% 16.0 mph NE25.7 kmh NE 24.6 mph39.6 kmh 30.24 in1024.0 mb 0.00 in0.0 mm 0.00 in0.0 mm 0.04 in1.0 mm
01:56 PM 61.5°F16.4°C 57.3°F14.1°C 86% 15.4 mph NE24.8 kmh NE 29.6 mph47.6 kmh 30.24 in1024.0 mb 0.00 in0.0 mm 0.00 in0.0 mm 0.04 in1.0 mm
02:01 PM 59.9°F15.5°C 56.1°F13.4°C 87% 15.7 mph NE25.3 kmh NE 29.6 mph47.6 kmh 30.27 in1025.1 mb 0.00 in0.0 mm 0.00 in0.0 mm 0.04 in1.0 mm
02:06 PM 59.4°F15.2°C 56.4°F13.6°C 90% 9.9 mph NE15.9 kmh NE 25.6 mph41.2 kmh 30.27 in1025.1 mb 0.00 in0.0 mm 0.00 in0.0 mm 0.04 in1.0 mm
02:11 PM 59.3°F15.2°C 56.3°F13.5°C 90% 11.7 mph NNE18.8 kmh NNE 17.0 mph27.4 kmh 30.27 in1025.1 mb 0.00 in0.0 mm 0.00 in0.0 mm 0.04 in1.0 mm
02:16 PM 59.8°F15.4°C 56.5°F13.6°C 89% 10.2 mph ENE16.4 kmh ENE 16.2 mph26.1 kmh 30.27 in1025.1 mb 0.00 in0.0 mm 0.00 in0.0 mm 0.04 in1.0 mm
02:21 PM 59.9°F15.5°C 56.1°F13.4°C 87% 11.9 mph ENE19.2 kmh ENE 17.0 mph27.4 kmh 30.27 in1025.1 mb 0.00 in0.0 mm 0.00 in0.0 mm 0.04 in1.0 mm
02:27 PM 60.2°F15.7°C 56.7°F13.7°C 88% 7.7 mph NE12.4 kmh NE 17.0 mph27.4 kmh 30.27 in1025.1 mb 0.00 in0.0 mm 0.00 in0.0 mm 0.04 in1.0 mm
02:32 PM 60.4°F15.8°C 56.6°F13.7°C 87% 9.7 mph NNE15.6 kmh NNE 18.8 mph30.3 kmh 30.24 in1024.0 mb 0.00 in0.0 mm 0.00 in0.0 mm 0.04 in1.0 mm
02:37 PM 60.1°F15.6°C 54.0°F12.2°C 80% 16.8 mph NE27.0 kmh NE 26.8 mph43.1 kmh 30.24 in1024.0 mb 0.00 in0.0 mm 0.00 in0.0 mm 0.04 in1.0 mm
02:42 PM 60.1°F15.6°C 53.7°F12.1°C 79% 15.2 mph NE24.5 kmh NE 28.6 mph46.0 kmh 30.24 in1024.0 mb 0.00 in0.0 mm 0.00 in0.0 mm 0.04 in1.0 mm
02:48 PM 59.9°F15.5°C 53.5°F11.9°C 79% 15.4 mph NNE24.8 kmh NNE 28.6 mph46.0 kmh 30.27 in1025.1 mb 0.00 in0.0 mm 0.00 in0.0 mm 0.04 in1.0 mm
02:53 PM 60.4°F15.8°C 53.6°F12.0°C 78% 14.1 mph NNE22.7 kmh NNE 22.0 mph35.4 kmh 30.27 in1025.1 mb 0.00 in0.0 mm 0.00 in0.0 mm 0.04 in1.0 mm
02:58 PM 60.2°F15.7°C 53.4°F11.9°C 78% 11.7 mph NE18.8 kmh NE 22.0 mph35.4 kmh 30.27 in1025.1 mb 0.00 in0.0 mm 0.00 in0.0 mm 0.04 in1.0 mm
03:03 PM 59.9°F15.5°C 53.1°F11.7°C 78% 11.1 mph NE17.9 kmh NE 17.4 mph28.0 kmh 30.27 in1025.1 mb 0.00 in0.0 mm 0.00 in0.0 mm 0.04 in1.0 mm
03:09 PM 59.8°F15.4°C 53.0°F11.7°C 78% 10.9 mph NE17.5 kmh NE 17.0 mph27.4 kmh 30.27 in1025.1 mb 0.00 in0.0 mm 0.00 in0.0 mm 0.04 in1.0 mm
03:14 PM 59.6°F15.3°C 52.8°F11.6°C 78% 7.8 mph ENE12.6 kmh ENE 17.0 mph27.4 kmh 30.24 in1024.0 mb 0.00 in0.0 mm 0.00 in0.0 mm 0.04 in1.0 mm
03:19 PM 59.3°F15.2°C 52.1°F11.2°C 77% 10.6 mph NE17.1 kmh NE 17.4 mph28.0 kmh 30.24 in1024.0 mb 0.00 in0.0 mm 0.00 in0.0 mm 0.04 in1.0 mm
03:24 PM 59.4°F15.2°C 52.6°F11.4°C 78% 7.0 mph NE11.3 kmh NE 17.4 mph28.0 kmh 30.24 in1024.0 mb 0.00 in0.0 mm 0.00 in0.0 mm 0.04 in1.0 mm
03:30 PM 59.6°F15.3°C 53.1°F11.7°C 79% 5.7 mph NE9.2 kmh NE 11.6 mph18.7 kmh 30.27 in1025.1 mb 0.00 in0.0 mm 0.00 in0.0 mm 0.04 in1.0 mm
03:35 PM 59.4°F15.2°C 52.6°F11.4°C 78% 6.7 mph NE10.8 kmh NE 12.6 mph20.3 kmh 30.27 in1025.1 mb 0.00 in0.0 mm 0.00 in0.0 mm 0.04 in1.0 mm
03:40 PM 59.4°F15.2°C 52.9°F11.6°C 79% 6.0 mph NE9.7 kmh NE 12.6 mph20.3 kmh 30.27 in1025.1 mb 0.00 in0.0 mm 0.00 in0.0 mm 0.04 in1.0 mm
03:45 PM 59.1°F15.1°C 52.9°F11.6°C 80% 7.8 mph ENE12.6 kmh ENE 12.0 mph19.3 kmh 30.30 in1026.1 mb 0.00 in0.0 mm 0.00 in0.0 mm 0.04 in1.0 mm
03:50 PM 58.7°F14.8°C 52.9°F11.6°C 81% 5.5 mph NE8.9 kmh NE 11.6 mph18.7 kmh 30.30 in1026.1 mb 0.00 in0.0 mm 0.00 in0.0 mm 0.04 in1.0 mm
03:55 PM 58.7°F14.8°C 52.9°F11.6°C 81% 6.0 mph E9.7 kmh E 11.2 mph18.0 kmh 30.30 in1026.1 mb 0.00 in0.0 mm 0.00 in0.0 mm 0.04 in1.0 mm
04:01 PM 58.9°F14.9°C 53.7°F12.1°C 83% 5.2 mph E8.4 kmh E 11.6 mph18.7 kmh 30.27 in1025.1 mb 0.00 in0.0 mm 0.00 in0.0 mm 0.04 in1.0 mm
04:06 PM 59.3°F15.2°C 54.1°F12.3°C 83% 3.4 mph E5.5 kmh E 11.6 mph18.7 kmh 30.27 in1025.1 mb 0.00 in0.0 mm 0.00 in0.0 mm 0.04 in1.0 mm
04:11 PM 59.4°F15.2°C 54.5°F12.5°C 84% 4.7 mph ESE7.6 kmh ESE 7.2 mph11.6 kmh 30.27 in1025.1 mb 0.00 in0.0 mm 0.00 in0.0 mm 0.04 in1.0 mm
04:16 PM 59.6°F15.3°C 54.4°F12.4°C 83% 4.7 mph E7.6 kmh E 8.0 mph12.9 kmh 30.27 in1025.1 mb 0.00 in0.0 mm 0.00 in0.0 mm 0.04 in1.0 mm
04:21 PM 59.6°F15.3°C 54.4°F12.4°C 83% 5.0 mph ESE8.0 kmh ESE 9.8 mph15.8 kmh 30.27 in1025.1 mb 0.00 in0.0 mm 0.00 in0.0 mm 0.04 in1.0 mm
04:26 PM 59.6°F15.3°C 54.7°F12.6°C 84% 5.8 mph ENE9.3 kmh ENE 9.8 mph15.8 kmh 30.27 in1025.1 mb 0.00 in0.0 mm 0.00 in0.0 mm 0.04 in1.0 mm
04:31 PM 59.6°F15.3°C 54.7°F12.6°C 84% 6.2 mph ENE10.0 kmh ENE 11.6 mph18.7 kmh 30.30 in1026.1 mb 0.00 in0.0 mm 0.00 in0.0 mm 0.04 in1.0 mm
04:36 PM 59.6°F15.3°C 55.0°F12.8°C 85% 6.7 mph NE10.8 kmh NE 11.6 mph18.7 kmh 30.30 in1026.1 mb 0.00 in0.0 mm 0.00 in0.0 mm 0.04 in1.0 mm
04:42 PM 59.3°F15.2°C 55.1°F12.8°C 86% 4.4 mph NE7.1 kmh NE 12.6 mph20.3 kmh 30.30 in1026.1 mb 0.00 in0.0 mm 0.00 in0.0 mm 0.04 in1.0 mm
04:47 PM 59.1°F15.1°C 55.2°F12.9°C 87% 6.1 mph E9.8 kmh E 12.6 mph20.3 kmh 30.30 in1026.1 mb 0.00 in0.0 mm 0.00 in0.0 mm 0.04 in1.0 mm
04:52 PM 58.9°F14.9°C 55.3°F12.9°C 88% 8.7 mph ENE14.0 kmh ENE 14.8 mph23.8 kmh 30.30 in1026.1 mb 0.00 in0.0 mm 0.00 in0.0 mm 0.04 in1.0 mm
04:57 PM 58.5°F14.7°C 55.2°F12.9°C 89% 7.8 mph ENE12.6 kmh ENE 14.8 mph23.8 kmh 30.33 in1027.1 mb 0.00 in0.0 mm 0.00 in0.0 mm 0.04 in1.0 mm
05:02 PM 58.5°F14.7°C 55.5°F13.1°C 90% 7.2 mph E11.6 kmh E 13.0 mph20.9 kmh 30.33 in1027.1 mb 0.00 in0.0 mm 0.00 in0.0 mm 0.04 in1.0 mm
05:07 PM 58.7°F14.8°C 56.0°F13.3°C 91% 5.6 mph E9.0 kmh E 11.2 mph18.0 kmh 30.33 in1027.1 mb 0.00 in0.0 mm 0.00 in0.0 mm 0.04 in1.0 mm
05:13 PM 58.9°F14.9°C 56.2°F13.4°C 91% 6.2 mph ENE10.0 kmh ENE 8.0 mph12.9 kmh 30.33 in1027.1 mb 0.00 in0.0 mm 0.00 in0.0 mm 0.04 in1.0 mm
05:18 PM 58.9°F14.9°C 56.5°F13.6°C 92% 7.5 mph NE12.1 kmh NE 14.8 mph23.8 kmh 30.33 in1027.1 mb 0.00 in0.0 mm 0.00 in0.0 mm 0.04 in1.0 mm
05:25 PM 58.7°F14.8°C 56.3°F13.5°C 92% 6.4 mph E10.3 kmh E 14.8 mph23.8 kmh 30.33 in1027.1 mb 0.00 in0.0 mm 0.00 in0.0 mm 0.04 in1.0 mm
05:30 PM 58.7°F14.8°C 56.6°F13.7°C 93% 6.2 mph NE10.0 kmh NE 13.0 mph20.9 kmh 30.33 in1027.1 mb 0.00 in0.0 mm 0.00 in0.0 mm 0.04 in1.0 mm
05:35 PM 58.5°F14.7°C 56.4°F13.6°C 93% 9.4 mph NE15.1 kmh NE 18.8 mph30.3 kmh 30.33 in1027.1 mb 0.00 in0.0 mm 0.00 in0.0 mm 0.04 in1.0 mm
05:40 PM 58.4°F14.7°C 56.0°F13.3°C 92% 13.4 mph NE21.6 kmh NE 18.8 mph30.3 kmh 30.33 in1027.1 mb 0.00 in0.0 mm 0.00 in0.0 mm 0.04 in1.0 mm
05:45 PM 58.4°F14.7°C 56.0°F13.3°C 92% 9.4 mph ENE15.1 kmh ENE 18.8 mph30.3 kmh 30.33 in1027.1 mb 0.00 in0.0 mm 0.00 in0.0 mm 0.04 in1.0 mm
05:50 PM 58.2°F14.6°C 56.1°F13.4°C 93% 9.8 mph ENE15.8 kmh ENE 15.6 mph25.1 kmh 30.33 in1027.1 mb 0.00 in0.0 mm 0.00 in0.0 mm 0.04 in1.0 mm
05:56 PM 58.0°F14.4°C 55.3°F12.9°C 91% 15.1 mph ENE24.3 kmh ENE 22.0 mph35.4 kmh 30.33 in1027.1 mb 0.00 in0.0 mm 0.00 in0.0 mm 0.04 in1.0 mm
06:01 PM 57.8°F14.3°C 53.9°F12.2°C 87% 12.4 mph ENE20.0 kmh ENE 22.0 mph35.4 kmh 30.30 in1026.1 mb 0.00 in0.0 mm 0.00 in0.0 mm 0.04 in1.0 mm
06:06 PM 57.8°F14.3°C 53.0°F11.7°C 84% 10.5 mph ENE16.9 kmh ENE 21.0 mph33.8 kmh 30.30 in1026.1 mb 0.00 in0.0 mm 0.00 in0.0 mm 0.04 in1.0 mm
06:11 PM 57.6°F14.2°C 53.1°F11.7°C 85% 9.6 mph ENE15.4 kmh ENE 21.0 mph33.8 kmh 30.30 in1026.1 mb 0.00 in0.0 mm 0.00 in0.0 mm 0.04 in1.0 mm
06:16 PM 57.5°F14.2°C 52.4°F11.3°C 83% 13.3 mph NE21.4 kmh NE 20.2 mph32.5 kmh 30.33 in1027.1 mb 0.00 in0.0 mm 0.00 in0.0 mm 0.04 in1.0 mm
06:21 PM 57.3°F14.1°C 51.5°F10.8°C 81% 15.9 mph ENE25.6 kmh ENE 29.6 mph47.6 kmh 30.33 in1027.1 mb 0.00 in0.0 mm 0.00 in0.0 mm 0.04 in1.0 mm
06:27 PM 57.1°F13.9°C 51.3°F10.7°C 81% 11.6 mph NE18.7 kmh NE 29.6 mph47.6 kmh 30.33 in1027.1 mb 0.00 in0.0 mm 0.00 in0.0 mm 0.04 in1.0 mm
06:32 PM 57.1°F13.9°C 51.6°F10.9°C 82% 12.2 mph ENE19.6 kmh ENE 25.0 mph40.2 kmh 30.36 in1028.1 mb 0.00 in0.0 mm 0.00 in0.0 mm 0.04 in1.0 mm
06:37 PM 56.9°F13.8°C 51.4°F10.8°C 82% 15.7 mph NE25.3 kmh NE 22.4 mph36.0 kmh 30.36 in1028.1 mb 0.00 in0.0 mm 0.00 in0.0 mm 0.04 in1.0 mm
06:42 PM 56.7°F13.7°C 51.6°F10.9°C 83% 11.4 mph ENE18.3 kmh ENE 22.4 mph36.0 kmh 30.36 in1028.1 mb 0.00 in0.0 mm 0.00 in0.0 mm 0.04 in1.0 mm
06:47 PM 56.7°F13.7°C 51.9°F11.1°C 84% 5.7 mph E9.2 kmh E 19.6 mph31.5 kmh 30.36 in1028.1 mb 0.00 in0.0 mm 0.00 in0.0 mm 0.04 in1.0 mm
06:52 PM 56.6°F13.7°C 51.8°F11.0°C 84% 11.2 mph E18.0 kmh E 16.2 mph26.1 kmh 30.36 in1028.1 mb 0.00 in0.0 mm 0.00 in0.0 mm 0.04 in1.0 mm
06:58 PM 56.4°F13.6°C 51.3°F10.7°C 83% 15.2 mph ENE24.5 kmh ENE 18.8 mph30.3 kmh 30.36 in1028.1 mb 0.00 in0.0 mm 0.00 in0.0 mm 0.04 in1.0 mm
07:04 PM 56.2°F13.4°C 51.1°F10.6°C 83% 14.6 mph NE23.5 kmh NE 18.8 mph30.3 kmh 30.36 in1028.1 mb 0.00 in0.0 mm 0.00 in0.0 mm 0.04 in1.0 mm
07:09 PM 56.2°F13.4°C 51.1°F10.6°C 83% 10.2 mph ENE16.4 kmh ENE 21.0 mph33.8 kmh 30.36 in1028.1 mb 0.00 in0.0 mm 0.00 in0.0 mm 0.04 in1.0 mm
07:14 PM 56.0°F13.3°C 50.9°F10.5°C 83% 7.1 mph ENE11.4 kmh ENE 19.2 mph30.9 kmh 30.39 in1029.1 mb 0.00 in0.0 mm 0.00 in0.0 mm 0.04 in1.0 mm
07:19 PM 56.0°F13.3°C 50.6°F10.3°C 82% 10.7 mph ENE17.2 kmh ENE 21.0 mph33.8 kmh 30.39 in1029.1 mb 0.00 in0.0 mm 0.00 in0.0 mm 0.04 in1.0 mm
07:24 PM 56.0°F13.3°C 50.6°F10.3°C 82% 11.1 mph NE17.9 kmh NE 21.0 mph33.8 kmh 30.39 in1029.1 mb 0.00 in0.0 mm 0.00 in0.0 mm 0.04 in1.0 mm
07:29 PM 55.8°F13.2°C 50.4°F10.2°C 82% 10.6 mph ENE17.1 kmh ENE 17.0 mph27.4 kmh 30.36 in1028.1 mb 0.00 in0.0 mm 0.00 in0.0 mm 0.04 in1.0 mm
07:34 PM 55.8°F13.2°C 50.4°F10.2°C 82% 8.3 mph NE13.4 kmh NE 17.4 mph28.0 kmh 30.36 in1028.1 mb 0.00 in0.0 mm 0.00 in0.0 mm 0.04 in1.0 mm
07:40 PM 55.8°F13.2°C 50.4°F10.2°C 82% 11.4 mph NE18.3 kmh NE 17.4 mph28.0 kmh 30.36 in1028.1 mb 0.00 in0.0 mm 0.00 in0.0 mm 0.04 in1.0 mm
07:45 PM 55.8°F13.2°C 50.1°F10.1°C 81% 12.1 mph ENE19.5 kmh ENE 17.0 mph27.4 kmh 30.36 in1028.1 mb 0.00 in0.0 mm 0.00 in0.0 mm 0.04 in1.0 mm
07:50 PM 55.8°F13.2°C 50.4°F10.2°C 82% 5.6 mph ENE9.0 kmh ENE 17.0 mph27.4 kmh 30.36 in1028.1 mb 0.00 in0.0 mm 0.00 in0.0 mm 0.04 in1.0 mm
07:55 PM 55.7°F13.2°C 50.3°F10.2°C 82% 6.1 mph ENE9.8 kmh ENE 16.2 mph26.1 kmh 30.36 in1028.1 mb 0.00 in0.0 mm 0.00 in0.0 mm 0.04 in1.0 mm
08:00 PM 55.7°F13.2°C 50.3°F10.2°C 82% 8.4 mph ENE13.5 kmh ENE 15.6 mph25.1 kmh 30.39 in1029.1 mb 0.00 in0.0 mm 0.00 in0.0 mm 0.04 in1.0 mm
08:05 PM 55.5°F13.1°C 50.1°F10.1°C 82% 5.1 mph ENE8.2 kmh ENE 15.6 mph25.1 kmh 30.39 in1029.1 mb 0.00 in0.0 mm 0.00 in0.0 mm 0.04 in1.0 mm
08:11 PM 55.5°F13.1°C 50.1°F10.1°C 82% 7.9 mph ENE12.7 kmh ENE 11.6 mph18.7 kmh 30.39 in1029.1 mb 0.00 in0.0 mm 0.00 in0.0 mm 0.04 in1.0 mm
08:16 PM 55.5°F13.1°C 49.1°F9.5°C 79% 16.5 mph ENE26.6 kmh ENE 24.2 mph38.9 kmh 30.42 in1030.1 mb 0.00 in0.0 mm 0.00 in0.0 mm 0.04 in1.0 mm
08:21 PM 55.5°F13.1°C 48.8°F9.3°C 78% 12.1 mph ENE19.5 kmh ENE 24.2 mph38.9 kmh 30.42 in1030.1 mb 0.00 in0.0 mm 0.00 in0.0 mm 0.04 in1.0 mm
08:26 PM 55.5°F13.1°C 48.4°F9.1°C 77% 8.7 mph E14.0 kmh E 19.6 mph31.5 kmh 30.42 in1030.1 mb 0.00 in0.0 mm 0.00 in0.0 mm 0.04 in1.0 mm
08:31 PM 55.3°F12.9°C 48.2°F9.0°C 77% 13.8 mph NE22.2 kmh NE 20.2 mph32.5 kmh 30.45 in1031.2 mb 0.00 in0.0 mm 0.00 in0.0 mm 0.04 in1.0 mm
08:36 PM 55.1°F12.8°C 48.1°F8.9°C 77% 13.3 mph NE21.4 kmh NE 29.0 mph46.7 kmh 30.45 in1031.2 mb 0.00 in0.0 mm 0.00 in0.0 mm 0.04 in1.0 mm
08:42 PM 54.8°F12.7°C 48.1°F8.9°C 78% 8.8 mph NE14.2 kmh NE 29.0 mph46.7 kmh 30.45 in1031.2 mb 0.00 in0.0 mm 0.00 in0.0 mm 0.04 in1.0 mm
08:47 PM 54.8°F12.7°C 48.4°F9.1°C 79% 9.2 mph ENE14.8 kmh ENE 21.0 mph33.8 kmh 30.45 in1031.2 mb 0.00 in0.0 mm 0.00 in0.0 mm 0.04 in1.0 mm
08:52 PM 54.6°F12.6°C 48.2°F9.0°C 79% 8.8 mph E14.2 kmh E 21.4 mph34.4 kmh 30.45 in1031.2 mb 0.00 in0.0 mm 0.00 in0.0 mm 0.04 in1.0 mm
08:57 PM 54.4°F12.4°C 49.9°F9.9°C 85% 15.5 mph ENE24.9 kmh ENE 25.6 mph41.2 kmh 30.45 in1031.2 mb 0.00 in0.0 mm 0.00 in0.0 mm 0.04 in1.0 mm
09:02 PM 54.0°F12.2°C 50.5°F10.3°C 88% 10.1 mph E16.3 kmh E 25.6 mph41.2 kmh 30.45 in1031.2 mb 0.00 in0.0 mm 0.00 in0.0 mm 0.04 in1.0 mm
09:07 PM 53.3°F11.8°C 51.0°F10.6°C 92% 15.6 mph ENE25.1 kmh ENE 29.6 mph47.6 kmh 30.45 in1031.2 mb 0.00 in0.0 mm 0.00 in0.0 mm 0.04 in1.0 mm
09:12 PM 52.6°F11.4°C 50.8°F10.4°C 94% 12.2 mph ENE19.6 kmh ENE 29.6 mph47.6 kmh 30.42 in1030.1 mb 0.00 in0.0 mm 0.00 in0.0 mm 0.04 in1.0 mm
09:18 PM 52.2°F11.2°C 50.5°F10.3°C 94% 15.1 mph ENE24.3 kmh ENE 22.0 mph35.4 kmh 30.42 in1030.1 mb 0.00 in0.0 mm 0.00 in0.0 mm 0.04 in1.0 mm
09:25 PM 51.5°F10.8°C 50.3°F10.2°C 96% 17.1 mph E27.5 kmh E 26.4 mph42.5 kmh 30.42 in1030.1 mb 0.00 in0.0 mm 0.00 in0.0 mm 0.04 in1.0 mm
09:30 PM 51.2°F10.7°C 50.3°F10.2°C 97% 14.6 mph E23.5 kmh E 30.8 mph49.6 kmh 30.45 in1031.2 mb 0.00 in0.0 mm 0.00 in0.0 mm 0.04 in1.0 mm
09:35 PM 50.6°F10.3°C 49.7°F9.8°C 97% 12.0 mph NE19.3 kmh NE 30.8 mph49.6 kmh 30.45 in1031.2 mb 0.00 in0.0 mm 0.00 in0.0 mm 0.04 in1.0 mm
09:40 PM 50.3°F10.2°C 49.4°F9.7°C 97% 13.9 mph E22.4 kmh E 21.4 mph34.4 kmh 30.45 in1031.2 mb 0.00 in0.0 mm 0.00 in0.0 mm 0.04 in1.0 mm
09:45 PM 50.1°F10.1°C 49.2°F9.6°C 97% 7.5 mph E12.1 kmh E 21.4 mph34.4 kmh 30.47 in1031.8 mb 0.00 in0.0 mm 0.00 in0.0 mm 0.04 in1.0 mm
09:50 PM 49.7°F9.8°C 49.1°F9.5°C 98% 10.8 mph ENE17.4 kmh ENE 21.0 mph33.8 kmh 30.47 in1031.8 mb 0.00 in0.0 mm 0.00 in0.0 mm 0.04 in1.0 mm
09:55 PM 49.5°F9.7°C 48.9°F9.4°C 98% 12.3 mph ENE19.8 kmh ENE 21.0 mph33.8 kmh 30.47 in1031.8 mb 0.00 in0.0 mm 0.00 in0.0 mm 0.04 in1.0 mm
10:00 PM 49.4°F9.7°C 48.8°F9.3°C 98% 9.4 mph E15.1 kmh E 20.2 mph32.5 kmh 30.47 in1031.8 mb 0.00 in0.0 mm 0.00 in0.0 mm 0.04 in1.0 mm
10:06 PM 49.2°F9.6°C 48.6°F9.2°C 98% 11.3 mph E18.2 kmh E 20.2 mph32.5 kmh 30.47 in1031.8 mb 0.00 in0.0 mm 0.00 in0.0 mm 0.04 in1.0 mm
10:11 PM 48.6°F9.2°C 48.0°F8.9°C 98% 14.8 mph E23.8 kmh E 21.0 mph33.8 kmh 30.47 in1031.8 mb 0.00 in0.0 mm 0.00 in0.0 mm 0.04 in1.0 mm
10:16 PM 48.3°F9.1°C 47.7°F8.7°C 98% 13.0 mph ENE20.9 kmh ENE 21.0 mph33.8 kmh 30.47 in1031.8 mb 0.00 in0.0 mm 0.00 in0.0 mm 0.04 in1.0 mm
10:21 PM 47.9°F8.8°C 46.8°F8.2°C 96% 14.9 mph ENE24.0 kmh ENE 21.4 mph34.4 kmh 30.47 in1031.8 mb 0.00 in0.0 mm 0.00 in0.0 mm 0.04 in1.0 mm
10:26 PM 47.7°F8.7°C 45.4°F7.4°C 92% 11.8 mph E19.0 kmh E 21.4 mph34.4 kmh 30.47 in1031.8 mb 0.00 in0.0 mm 0.00 in0.0 mm 0.04 in1.0 mm
10:31 PM 47.9°F8.8°C 44.5°F6.9°C 88% 10.5 mph E16.9 kmh E 25.6 mph41.2 kmh 30.47 in1031.8 mb 0.00 in0.0 mm 0.00 in0.0 mm 0.04 in1.0 mm
10:36 PM 47.9°F8.8°C 44.8°F7.1°C 89% 8.7 mph ESE14.0 kmh ESE 25.6 mph41.2 kmh 30.47 in1031.8 mb 0.00 in0.0 mm 0.00 in0.0 mm 0.04 in1.0 mm
10:41 PM 47.7°F8.7°C 44.3°F6.8°C 88% 12.3 mph ENE19.8 kmh ENE 17.4 mph28.0 kmh 30.47 in1031.8 mb 0.00 in0.0 mm 0.00 in0.0 mm 0.04 in1.0 mm
10:47 PM 47.7°F8.7°C 44.3°F6.8°C 88% 7.0 mph E11.3 kmh E 17.4 mph28.0 kmh 30.47 in1031.8 mb 0.00 in0.0 mm 0.00 in0.0 mm 0.04 in1.0 mm
10:52 PM 47.6°F8.7°C 42.7°F5.9°C 83% 17.6 mph ENE28.3 kmh ENE 26.0 mph41.8 kmh 30.47 in1031.8 mb 0.00 in0.0 mm 0.00 in0.0 mm 0.04 in1.0 mm
10:57 PM 47.4°F8.6°C 41.6°F5.3°C 80% 11.9 mph E19.2 kmh E 26.0 mph41.8 kmh 30.47 in1031.8 mb 0.00 in0.0 mm 0.00 in0.0 mm 0.04 in1.0 mm
11:02 PM 47.4°F8.6°C 40.3°F4.6°C 76% 11.3 mph E18.2 kmh E 22.4 mph36.0 kmh 30.47 in1031.8 mb 0.00 in0.0 mm 0.00 in0.0 mm 0.04 in1.0 mm
11:07 PM 47.2°F8.4°C 39.0°F3.9°C 73% 13.0 mph ENE20.9 kmh ENE 21.0 mph33.8 kmh 30.47 in1031.8 mb 0.00 in0.0 mm 0.00 in0.0 mm 0.04 in1.0 mm
11:12 PM 47.2°F8.4°C 38.3°F3.5°C 71% 11.5 mph E18.5 kmh E 21.0 mph33.8 kmh 30.47 in1031.8 mb 0.00 in0.0 mm 0.00 in0.0 mm 0.04 in1.0 mm
11:17 PM 47.2°F8.4°C 36.9°F2.7°C 67% 9.1 mph E14.6 kmh E 21.4 mph34.4 kmh 30.50 in1032.8 mb 0.00 in0.0 mm 0.00 in0.0 mm 0.04 in1.0 mm
11:23 PM 47.0°F8.3°C 36.3°F2.4°C 66% 12.3 mph ESE19.8 kmh ESE 23.8 mph38.3 kmh 30.50 in1032.8 mb 0.00 in0.0 mm 0.00 in0.0 mm 0.04 in1.0 mm
11:31 PM 46.8°F8.2°C 35.7°F2.1°C 65% 11.5 mph ENE18.5 kmh ENE 17.4 mph28.0 kmh 30.50 in1032.8 mb 0.00 in0.0 mm 0.00 in0.0 mm 0.04 in1.0 mm
11:36 PM 46.8°F8.2°C 35.3°F1.8°C 64% 10.3 mph ENE16.6 kmh ENE 16.2 mph26.1 kmh 30.50 in1032.8 mb 0.00 in0.0 mm 0.00 in0.0 mm 0.04 in1.0 mm
11:41 PM 46.8°F8.2°C 34.9°F1.6°C 63% 8.6 mph E13.8 kmh E 18.4 mph29.6 kmh 30.50 in1032.8 mb 0.00 in0.0 mm 0.00 in0.0 mm 0.04 in1.0 mm
11:46 PM 46.7°F8.2°C 34.4°F1.3°C 62% 10.2 mph ENE16.4 kmh ENE 21.0 mph33.8 kmh 30.47 in1031.8 mb 0.00 in0.0 mm 0.00 in0.0 mm 0.04 in1.0 mm
11:51 PM 46.7°F8.2°C 34.0°F1.1°C 61% 7.1 mph E11.4 kmh E 21.0 mph33.8 kmh 30.47 in1031.8 mb 0.00 in0.0 mm 0.00 in0.0 mm 0.04 in1.0 mm
11:56 PM 46.5°F8.1°C 32.6°F0.3°C 58% 12.5 mph E20.1 kmh E 24.6 mph39.6 kmh 30.47 in1031.8 mb 0.00 in0.0 mm 0.00 in0.0 mm 0.04 in1.0 mm